Carnival Valor — H3VR — position and weather

sailwx.info

Track history (hours):
 
Tides and Currents Weather Stations Pressure Air Temp Water Temp Dewpoint Dewpoint Depression Visibility Wind Speed Wind Dir Waves Ship Positions

Carnival Valor

Last reported at 2017-Jun-25 00:03 UTC. Time now 2017-Jun-25 05:15 UTC.
Position N 20°36' W 086°58'.

Type: Ship. MMSI: 354298000.

Date/timePositionNaut miles runAvg speedWind from/ knotsBaromVisibWave heightAir tempDewpointWater temp
2017-Jun-25 00:03N 20°36' W 086°58'119.1
2017-Jun-25 00:00N 20°35' W 086°58'612.2
2017-Jun-24 23:31N 20°29' W 086°59'1 1.0
2017-Jun-24 22:58N 20°29' W 086°59'0 0.0
2017-Jun-24 22:27N 20°29' W 086°59'0 0.0
2017-Jun-24 21:57N 20°29' W 086°59'0 0.0
2017-Jun-24 21:30N 20°29' W 086°59'0 0.0
2017-Jun-24 21:00N 20°29' W 086°59'0 0.0
2017-Jun-24 20:30N 20°29' W 086°59'0 0.0
2017-Jun-24 20:00N 20°29' W 086°59'0 0.0
2017-Jun-24 19:30N 20°29' W 086°59'0 0.0
2017-Jun-24 19:00N 20°29' W 086°59'0 0.0
2017-Jun-24 18:30N 20°29' W 086°59'0 0.0
2017-Jun-24 18:00N 20°29' W 086°59'0 0.0
2017-Jun-24 17:30N 20°29' W 086°59'0 0.0
2017-Jun-24 17:00N 20°29' W 086°59'0 0.0
2017-Jun-24 16:30N 20°29' W 086°59'0 0.0
2017-Jun-24 16:00N 20°29' W 086°59'0 0.0
2017-Jun-24 15:30N 20°29' W 086°59'0 0.0
2017-Jun-24 15:00N 20°29' W 086°59'1 1.1
2017-Jun-24 14:00N 20°29' W 086°59'510.4
2017-Jun-24 13:30N 20°35' W 086°59'11114.7
2017-Jun-24 06:00N 22°24' W 087°18'20818.9 120 / 151009.0 5.4 22.018.928.0
2017-Jun-23 19:00N 25°00' W 089°48'12620.9 130 / 161010.0 5.4 23.021.528.0
2017-Jun-23 13:00N 26°36' W 091°18'16017.8 180 / 251009.0 5.4 23.018.328.0
2017-Jun-23 04:00N 28°31' W 093°23'1417.8
2017-Jun-23 03:13N 28°39' W 093°36'417.7
2017-Jun-23 02:59N 28°42' W 093°40'917.6
2017-Jun-23 02:29N 28°47' W 093°48'1817.0
2017-Jun-23 01:26N 28°57' W 094°04'4015.0
2017-Jun-22 22:46N 29°20' W 094°41'415.5
2017-Jun-22 22:30N 29°20' W 094°46'3 1.1
2017-Jun-22 20:09N 29°19' W 094°48'0 0.0
2017-Jun-22 19:51N 29°19' W 094°48'0 0.0
2017-Jun-22 17:08N 29°19' W 094°48'0 0.0
2017-Jun-22 16:26N 29°19' W 094°48'0 0.0
2017-Jun-22 15:07N 29°19' W 094°48'0 0.0
2017-Jun-22 14:55N 29°19' W 094°48'1 2.2
2017-Jun-22 14:28N 29°19' W 094°47'4755734.0
2017-Jun-22 08:00N 28°12' W 004°24'4727590.8 260 / 401002.0 5.4 23.018.327.0
2017-Jun-22 00:00N 26°06' W 092°54'18220.2 250 / 301002.0 2.2 23.018.328.0
2017-Jun-21 15:00N 24°18' W 090°12'7719.3 230 / 171006.010.8 23.019.929.0
2017-Jun-21 11:00N 23°30' W 089°06'11022.1 220 / 241004.0 5.4 23.018.328.0
2017-Jun-21 06:00N 22°24' W 087°30'11318.8 160 / 191007.0 5.4 25.022.026.0
2017-Jun-21 00:00N 20°36' W 086°54'348.4 160 / 301005.0 5.4 26.024.629.0
2017-Jun-20 23:55N 20°36' W 086°58'615.1
2017-Jun-20 23:30N 20°30' W 086°60'2 3.7
2017-Jun-20 22:58N 20°29' W 086°59'0 0.0
2017-Jun-20 22:28N 20°29' W 086°59'0 0.0
2017-Jun-20 21:58N 20°29' W 086°59'0 0.0
2017-Jun-20 21:28N 20°29' W 086°59'0 0.0
2017-Jun-20 21:00N 20°29' W 086°59'0 0.0
2017-Jun-20 20:30N 20°29' W 086°59'0 0.0
2017-Jun-20 20:00N 20°29' W 086°59'0 0.0
2017-Jun-20 19:30N 20°29' W 086°59'0 0.0
2017-Jun-20 19:00N 20°29' W 086°59'0 0.0
2017-Jun-20 18:30N 20°29' W 086°59'0 0.0
2017-Jun-20 18:00N 20°29' W 086°59'0 0.0
2017-Jun-20 17:30N 20°29' W 086°59'0 0.0
2017-Jun-20 17:00N 20°29' W 086°59'0 0.0
2017-Jun-20 16:30N 20°29' W 086°59'0 0.0
2017-Jun-20 16:00N 20°29' W 086°59'0 0.0
2017-Jun-20 15:30N 20°29' W 086°59'0 0.0
2017-Jun-20 15:00N 20°29' W 086°59'0 0.0
2017-Jun-20 14:00N 20°29' W 086°59'0 0.8
2017-Jun-20 13:30N 20°29' W 086°59'4 8.3
2017-Jun-20 13:00N 20°33' W 086°60'1414.0
2017-Jun-20 12:00N 20°42' W 086°48'4314.5 150 / 301005.0 2.2 26.024.629.0
2017-Jun-20 09:00N 21°24' W 086°36'3712.5 190 / 291002.0 2.2 25.022.028.0
2017-Jun-20 06:00N 21°54' W 087°00'3919.5 170 / 301002.0 5.4 24.022.527.0
2017-Jun-20 04:00N 21°54' W 087°42'7919.7 170 / 241002.010.8 25.022.029.0
2017-Jun-20 00:00N 21°42' W 089°06'301 8.6 010 / 101002.010.8 26.023.128.0
2017-Jun-18 13:00N 26°24' W 091°00'26417.7 150 / 101008.010.8 26.023.128.0
2017-Jun-17 22:06N 29°21' W 094°42'116.1
2017-Jun-17 22:01N 29°21' W 094°43'5 7.8
2017-Jun-17 21:26N 29°19' W 094°48'0 0.0
2017-Jun-17 20:59N 29°19' W 094°48'0 0.0
2017-Jun-17 20:22N 29°19' W 094°48'0 0.0
2017-Jun-17 19:52N 29°19' W 094°48'0 0.0
2017-Jun-17 19:25N 29°19' W 094°48'0 0.0
2017-Jun-17 18:58N 29°19' W 094°48'0 0.0
2017-Jun-17 18:28N 29°19' W 094°48'0 0.0
2017-Jun-17 17:57N 29°19' W 094°48'0 0.1
2017-Jun-17 17:30N 29°19' W 094°48'0 0.0
2017-Jun-17 17:00N 29°19' W 094°48'0 0.0
2017-Jun-17 16:30N 29°19' W 094°48'0 0.0
2017-Jun-17 16:00N 29°19' W 094°48'0 0.1
2017-Jun-17 15:30N 29°19' W 094°48'0 0.0
2017-Jun-17 14:59N 29°19' W 094°48'0 0.0
2017-Jun-17 13:57N 29°19' W 094°48'0 0.0
2017-Jun-17 13:29N 29°19' W 094°48'0 0.0
2017-Jun-17 12:59N 29°19' W 094°48'0 0.0
2017-Jun-17 12:29N 29°19' W 094°48'1 2.6
2017-Jun-17 12:00N 29°19' W 094°47'4 6.8
2017-Jun-17 11:26N 29°21' W 094°43'32513.9
2017-Jun-16 12:00N 24°30' W 092°00'   100 / 121011.010.8 26.024.629.0
Track history (hours):
 
Tides and Currents Weather Stations Pressure Air Temp Water Temp Dewpoint Dewpoint Depression Visibility Wind Speed Wind Dir Waves Ship Positions

Carnival Valor

Last reported at 2017-Jun-25 00:03 UTC. Time now 2017-Jun-25 05:15 UTC.
Position N 20°36' W 086°58'.

Type: Ship. MMSI: 354298000.

Date/timePositionNaut miles runAvg speedWind from/ knotsBaromVisibWave heightAir tempDewpointWater temp
2017-Jun-25 00:03N 20°36' W 086°58'119.1
2017-Jun-25 00:00N 20°35' W 086°58'612.2
2017-Jun-24 23:31N 20°29' W 086°59'1 1.0
2017-Jun-24 22:58N 20°29' W 086°59'0 0.0
2017-Jun-24 22:27N 20°29' W 086°59'0 0.0
2017-Jun-24 21:57N 20°29' W 086°59'0 0.0
2017-Jun-24 21:30N 20°29' W 086°59'0 0.0
2017-Jun-24 21:00N 20°29' W 086°59'0 0.0
2017-Jun-24 20:30N 20°29' W 086°59'0 0.0
2017-Jun-24 20:00N 20°29' W 086°59'0 0.0
2017-Jun-24 19:30N 20°29' W 086°59'0 0.0
2017-Jun-24 19:00N 20°29' W 086°59'0 0.0
2017-Jun-24 18:30N 20°29' W 086°59'0 0.0
2017-Jun-24 18:00N 20°29' W 086°59'0 0.0
2017-Jun-24 17:30N 20°29' W 086°59'0 0.0
2017-Jun-24 17:00N 20°29' W 086°59'0 0.0
2017-Jun-24 16:30N 20°29' W 086°59'0 0.0
2017-Jun-24 16:00N 20°29' W 086°59'0 0.0
2017-Jun-24 15:30N 20°29' W 086°59'0 0.0
2017-Jun-24 15:00N 20°29' W 086°59'1 1.1
2017-Jun-24 14:00N 20°29' W 086°59'510.4
2017-Jun-24 13:30N 20°35' W 086°59'11114.7
2017-Jun-24 06:00N 22°24' W 087°18'20818.9 120 / 151009.0 5.4 22.018.928.0
2017-Jun-23 19:00N 25°00' W 089°48'12620.9 130 / 161010.0 5.4 23.021.528.0
2017-Jun-23 13:00N 26°36' W 091°18'16017.8 180 / 251009.0 5.4 23.018.328.0
2017-Jun-23 04:00N 28°31' W 093°23'1417.8
2017-Jun-23 03:13N 28°39' W 093°36'417.7
2017-Jun-23 02:59N 28°42' W 093°40'917.6
2017-Jun-23 02:29N 28°47' W 093°48'1817.0
2017-Jun-23 01:26N 28°57' W 094°04'4015.0
2017-Jun-22 22:46N 29°20' W 094°41'415.5
2017-Jun-22 22:30N 29°20' W 094°46'3 1.1
2017-Jun-22 20:09N 29°19' W 094°48'0 0.0
2017-Jun-22 19:51N 29°19' W 094°48'0 0.0
2017-Jun-22 17:08N 29°19' W 094°48'0 0.0
2017-Jun-22 16:26N 29°19' W 094°48'0 0.0
2017-Jun-22 15:07N 29°19' W 094°48'0 0.0
2017-Jun-22 14:55N 29°19' W 094°48'1 2.2
2017-Jun-22 14:28N 29°19' W 094°47'4755734.0
2017-Jun-22 08:00N 28°12' W 004°24'4727590.8 260 / 401002.0 5.4 23.018.327.0
2017-Jun-22 00:00N 26°06' W 092°54'18220.2 250 / 301002.0 2.2 23.018.328.0
2017-Jun-21 15:00N 24°18' W 090°12'7719.3 230 / 171006.010.8 23.019.929.0
2017-Jun-21 11:00N 23°30' W 089°06'11022.1 220 / 241004.0 5.4 23.018.328.0
2017-Jun-21 06:00N 22°24' W 087°30'11318.8 160 / 191007.0 5.4 25.022.026.0
2017-Jun-21 00:00N 20°36' W 086°54'348.4 160 / 301005.0 5.4 26.024.629.0
2017-Jun-20 23:55N 20°36' W 086°58'615.1
2017-Jun-20 23:30N 20°30' W 086°60'2 3.7
2017-Jun-20 22:58N 20°29' W 086°59'0 0.0
2017-Jun-20 22:28N 20°29' W 086°59'0 0.0
2017-Jun-20 21:58N 20°29' W 086°59'0 0.0
2017-Jun-20 21:28N 20°29' W 086°59'0 0.0
2017-Jun-20 21:00N 20°29' W 086°59'0 0.0
2017-Jun-20 20:30N 20°29' W 086°59'0 0.0
2017-Jun-20 20:00N 20°29' W 086°59'0 0.0
2017-Jun-20 19:30N 20°29' W 086°59'0 0.0
2017-Jun-20 19:00N 20°29' W 086°59'0 0.0
2017-Jun-20 18:30N 20°29' W 086°59'0 0.0
2017-Jun-20 18:00N 20°29' W 086°59'0 0.0
2017-Jun-20 17:30N 20°29' W 086°59'0 0.0
2017-Jun-20 17:00N 20°29' W 086°59'0 0.0
2017-Jun-20 16:30N 20°29' W 086°59'0 0.0
2017-Jun-20 16:00N 20°29' W 086°59'0 0.0
2017-Jun-20 15:30N 20°29' W 086°59'0 0.0
2017-Jun-20 15:00N 20°29' W 086°59'0 0.0
2017-Jun-20 14:00N 20°29' W 086°59'0 0.8
2017-Jun-20 13:30N 20°29' W 086°59'4 8.3
2017-Jun-20 13:00N 20°33' W 086°60'1414.0
2017-Jun-20 12:00N 20°42' W 086°48'4314.5 150 / 301005.0 2.2 26.024.629.0
2017-Jun-20 09:00N 21°24' W 086°36'3712.5 190 / 291002.0 2.2 25.022.028.0
2017-Jun-20 06:00N 21°54' W 087°00'3919.5 170 / 301002.0 5.4 24.022.527.0
2017-Jun-20 04:00N 21°54' W 087°42'7919.7 170 / 241002.010.8 25.022.029.0
2017-Jun-20 00:00N 21°42' W 089°06'301 8.6 010 / 101002.010.8 26.023.128.0
2017-Jun-18 13:00N 26°24' W 091°00'26417.7 150 / 101008.010.8 26.023.128.0
2017-Jun-17 22:06N 29°21' W 094°42'116.1
2017-Jun-17 22:01N 29°21' W 094°43'5 7.8
2017-Jun-17 21:26N 29°19' W 094°48'0 0.0
2017-Jun-17 20:59N 29°19' W 094°48'0 0.0
2017-Jun-17 20:22N 29°19' W 094°48'0 0.0
2017-Jun-17 19:52N 29°19' W 094°48'0 0.0
2017-Jun-17 19:25N 29°19' W 094°48'0 0.0
2017-Jun-17 18:58N 29°19' W 094°48'0 0.0
2017-Jun-17 18:28N 29°19' W 094°48'0 0.0
2017-Jun-17 17:57N 29°19' W 094°48'0 0.1
2017-Jun-17 17:30N 29°19' W 094°48'0 0.0
2017-Jun-17 17:00N 29°19' W 094°48'0 0.0
2017-Jun-17 16:30N 29°19' W 094°48'0 0.0
2017-Jun-17 16:00N 29°19' W 094°48'0 0.1
2017-Jun-17 15:30N 29°19' W 094°48'0 0.0
2017-Jun-17 14:59N 29°19' W 094°48'0 0.0
2017-Jun-17 13:57N 29°19' W 094°48'0 0.0
2017-Jun-17 13:29N 29°19' W 094°48'0 0.0
2017-Jun-17 12:59N 29°19' W 094°48'0 0.0
2017-Jun-17 12:29N 29°19' W 094°48'1 2.6
2017-Jun-17 12:00N 29°19' W 094°47'4 6.8
2017-Jun-17 11:26N 29°21' W 094°43'32513.9
2017-Jun-16 12:00N 24°30' W 092°00'   100 / 121011.010.8 26.024.629.0

Dump ship's entire track history